sensor_id;sensor_type;location;lat;lon;timestamp;temperature;humidity
18339;DHT22;9295;44.484;11.240;2023-02-12T00:01:26;1.70;99.90
18339;DHT22;9295;44.484;11.240;2023-02-12T00:03:55;1.80;99.90
18339;DHT22;9295;44.484;11.240;2023-02-12T00:06:24;1.80;99.90
18339;DHT22;9295;44.484;11.240;2023-02-12T00:08:54;1.80;99.90
18339;DHT22;9295;44.484;11.240;2023-02-12T00:11:24;1.80;99.90
18339;DHT22;9295;44.484;11.240;2023-02-12T00:13:54;1.80;99.90
18339;DHT22;9295;44.484;11.240;2023-02-12T00:16:24;1.70;99.90
18339;DHT22;9295;44.484;11.240;2023-02-12T00:18:56;1.70;99.90
18339;DHT22;9295;44.484;11.240;2023-02-12T00:21:25;1.70;99.90
18339;DHT22;9295;44.484;11.240;2023-02-12T00:23:54;1.70;99.90
18339;DHT22;9295;44.484;11.240;2023-02-12T00:26:23;1.70;99.90
18339;DHT22;9295;44.484;11.240;2023-02-12T00:28:52;1.70;99.90
18339;DHT22;9295;44.484;11.240;2023-02-12T00:31:23;1.70;99.90
18339;DHT22;9295;44.484;11.240;2023-02-12T00:33:57;1.70;99.90
18339;DHT22;9295;44.484;11.240;2023-02-12T00:36:28;1.80;99.90
18339;DHT22;9295;44.484;11.240;2023-02-12T00:38:59;1.70;99.90
18339;DHT22;9295;44.484;11.240;2023-02-12T00:41:27;1.80;99.90
18339;DHT22;9295;44.484;11.240;2023-02-12T00:43:56;1.70;99.90
18339;DHT22;9295;44.484;11.240;2023-02-12T00:46:25;1.70;99.90
18339;DHT22;9295;44.484;11.240;2023-02-12T00:48:56;1.70;99.90
18339;DHT22;9295;44.484;11.240;2023-02-12T00:51:24;1.70;99.90
18339;DHT22;9295;44.484;11.240;2023-02-12T00:53:53;1.70;99.90
18339;DHT22;9295;44.484;11.240;2023-02-12T00:56:21;1.70;99.90
18339;DHT22;9295;44.484;11.240;2023-02-12T00:58:50;1.70;99.90
18339;DHT22;9295;44.484;11.240;2023-02-12T01:01:19;1.80;99.90
18339;DHT22;9295;44.484;11.240;2023-02-12T01:03:47;1.80;99.90
18339;DHT22;9295;44.484;11.240;2023-02-12T01:06:17;1.80;99.90
18339;DHT22;9295;44.484;11.240;2023-02-12T01:08:49;1.80;99.90
18339;DHT22;9295;44.484;11.240;2023-02-12T01:11:18;1.70;99.90
18339;DHT22;9295;44.484;11.240;2023-02-12T01:13:47;1.70;99.90
18339;DHT22;9295;44.484;11.240;2023-02-12T01:16:19;1.70;99.90
18339;DHT22;9295;44.484;11.240;2023-02-12T01:18:49;1.70;99.90
18339;DHT22;9295;44.484;11.240;2023-02-12T01:21:24;1.60;99.90
18339;DHT22;9295;44.484;11.240;2023-02-12T01:23:54;1.80;99.90
18339;DHT22;9295;44.484;11.240;2023-02-12T01:26:23;1.80;99.90
18339;DHT22;9295;44.484;11.240;2023-02-12T01:28:55;1.80;99.90
18339;DHT22;9295;44.484;11.240;2023-02-12T01:31:25;1.80;99.90
18339;DHT22;9295;44.484;11.240;2023-02-12T01:33:57;1.80;99.90
18339;DHT22;9295;44.484;11.240;2023-02-12T01:36:28;1.80;99.90
18339;DHT22;9295;44.484;11.240;2023-02-12T01:38:57;1.90;99.90
18339;DHT22;9295;44.484;11.240;2023-02-12T01:41:31;1.80;99.90
18339;DHT22;9295;44.484;11.240;2023-02-12T01:44:08;1.80;99.90
18339;DHT22;9295;44.484;11.240;2023-02-12T01:46:38;1.80;99.90
18339;DHT22;9295;44.484;11.240;2023-02-12T01:49:11;1.80;99.90
18339;DHT22;9295;44.484;11.240;2023-02-12T01:51:42;1.80;99.90
18339;DHT22;9295;44.484;11.240;2023-02-12T01:54:12;1.70;99.90
18339;DHT22;9295;44.484;11.240;2023-02-12T01:56:42;1.70;99.90
18339;DHT22;9295;44.484;11.240;2023-02-12T01:59:12;1.80;99.90
18339;DHT22;9295;44.484;11.240;2023-02-12T02:01:40;1.90;99.90
18339;DHT22;9295;44.484;11.240;2023-02-12T02:04:11;1.90;99.90
18339;DHT22;9295;44.484;11.240;2023-02-12T02:06:47;1.80;99.90
18339;DHT22;9295;44.484;11.240;2023-02-12T02:09:18;1.70;99.90
18339;DHT22;9295;44.484;11.240;2023-02-12T02:11:47;1.70;99.90
18339;DHT22;9295;44.484;11.240;2023-02-12T02:14:33;1.70;99.90
18339;DHT22;9295;44.484;11.240;2023-02-12T02:17:26;1.70;99.90
18339;DHT22;9295;44.484;11.240;2023-02-12T02:23:28;1.90;99.90
18339;DHT22;9295;44.484;11.240;2023-02-12T02:26:21;1.90;99.90
18339;DHT22;9295;44.484;11.240;2023-02-12T02:29:05;1.80;99.90
18339;DHT22;9295;44.484;11.240;2023-02-12T02:31:41;1.80;99.90
18339;DHT22;9295;44.484;11.240;2023-02-12T02:34:16;1.80;99.90
18339;DHT22;9295;44.484;11.240;2023-02-12T02:36:49;1.80;99.90
18339;DHT22;9295;44.484;11.240;2023-02-12T02:39:31;1.80;99.90
18339;DHT22;9295;44.484;11.240;2023-02-12T02:42:07;1.70;99.90
18339;DHT22;9295;44.484;11.240;2023-02-12T02:44:41;1.70;99.90
18339;DHT22;9295;44.484;11.240;2023-02-12T02:47:14;1.70;99.90
18339;DHT22;9295;44.484;11.240;2023-02-12T02:49:47;1.60;99.90
18339;DHT22;9295;44.484;11.240;2023-02-12T02:52:22;1.60;99.90
18339;DHT22;9295;44.484;11.240;2023-02-12T02:54:55;1.50;99.90
18339;DHT22;9295;44.484;11.240;2023-02-12T02:57:28;1.50;99.90
18339;DHT22;9295;44.484;11.240;2023-02-12T03:00:12;1.50;99.90
18339;DHT22;9295;44.484;11.240;2023-02-12T03:02:46;1.40;99.90
18339;DHT22;9295;44.484;11.240;2023-02-12T03:05:20;1.40;99.90
18339;DHT22;9295;44.484;11.240;2023-02-12T03:07:54;1.30;99.90
18339;DHT22;9295;44.484;11.240;2023-02-12T03:10:27;1.30;99.90
18339;DHT22;9295;44.484;11.240;2023-02-12T03:13:01;1.30;99.90
18339;DHT22;9295;44.484;11.240;2023-02-12T03:15:34;1.40;99.90
18339;DHT22;9295;44.484;11.240;2023-02-12T03:18:10;1.40;99.90
18339;DHT22;9295;44.484;11.240;2023-02-12T03:20:42;1.50;99.90
18339;DHT22;9295;44.484;11.240;2023-02-12T03:23:17;1.50;99.90
18339;DHT22;9295;44.484;11.240;2023-02-12T03:25:52;1.50;99.90
18339;DHT22;9295;44.484;11.240;2023-02-12T03:28:27;1.50;99.90
18339;DHT22;9295;44.484;11.240;2023-02-12T03:31:01;1.50;99.90
18339;DHT22;9295;44.484;11.240;2023-02-12T03:33:37;1.40;99.90
18339;DHT22;9295;44.484;11.240;2023-02-12T03:36:19;1.40;99.90
18339;DHT22;9295;44.484;11.240;2023-02-12T03:38:55;1.40;99.90
18339;DHT22;9295;44.484;11.240;2023-02-12T03:41:28;1.30;99.90
18339;DHT22;9295;44.484;11.240;2023-02-12T03:44:04;1.30;99.90
18339;DHT22;9295;44.484;11.240;2023-02-12T03:46:39;1.30;99.90
18339;DHT22;9295;44.484;11.240;2023-02-12T03:49:18;1.30;99.90
18339;DHT22;9295;44.484;11.240;2023-02-12T03:51:47;1.40;99.90
18339;DHT22;9295;44.484;11.240;2023-02-12T03:54:18;1.40;99.90
18339;DHT22;9295;44.484;11.240;2023-02-12T03:56:50;1.40;99.90
18339;DHT22;9295;44.484;11.240;2023-02-12T03:59:22;1.40;99.90
18339;DHT22;9295;44.484;11.240;2023-02-12T04:01:53;1.50;99.90
18339;DHT22;9295;44.484;11.240;2023-02-12T04:04:24;1.50;99.90
18339;DHT22;9295;44.484;11.240;2023-02-12T04:06:54;1.50;99.90
18339;DHT22;9295;44.484;11.240;2023-02-12T04:09:25;1.50;99.90
18339;DHT22;9295;44.484;11.240;2023-02-12T04:12:14;1.40;99.90
18339;DHT22;9295;44.484;11.240;2023-02-12T04:14:52;1.40;99.90
18339;DHT22;9295;44.484;11.240;2023-02-12T04:17:31;1.30;99.90
18339;DHT22;9295;44.484;11.240;2023-02-12T04:20:10;1.30;99.90
18339;DHT22;9295;44.484;11.240;2023-02-12T04:22:47;1.30;99.90
18339;DHT22;9295;44.484;11.240;2023-02-12T04:25:29;1.40;99.90
18339;DHT22;9295;44.484;11.240;2023-02-12T04:28:09;1.40;99.90
18339;DHT22;9295;44.484;11.240;2023-02-12T04:30:44;1.40;99.90
18339;DHT22;9295;44.484;11.240;2023-02-12T04:33:18;1.40;99.90
18339;DHT22;9295;44.484;11.240;2023-02-12T04:35:51;1.40;99.90
18339;DHT22;9295;44.484;11.240;2023-02-12T04:38:26;1.40;99.90
18339;DHT22;9295;44.484;11.240;2023-02-12T04:40:56;1.40;99.90
18339;DHT22;9295;44.484;11.240;2023-02-12T04:43:26;1.40;99.90
18339;DHT22;9295;44.484;11.240;2023-02-12T04:45:55;1.40;99.90
18339;DHT22;9295;44.484;11.240;2023-02-12T04:48:24;1.40;99.90
18339;DHT22;9295;44.484;11.240;2023-02-12T04:50:54;1.40;99.90
18339;DHT22;9295;44.484;11.240;2023-02-12T04:53:23;1.50;99.90
18339;DHT22;9295;44.484;11.240;2023-02-12T04:55:51;1.60;99.90
18339;DHT22;9295;44.484;11.240;2023-02-12T04:58:21;1.60;99.90
18339;DHT22;9295;44.484;11.240;2023-02-12T05:00:50;1.70;99.90
18339;DHT22;9295;44.484;11.240;2023-02-12T05:03:18;1.70;99.90
18339;DHT22;9295;44.484;11.240;2023-02-12T05:05:47;1.70;99.90
18339;DHT22;9295;44.484;11.240;2023-02-12T05:08:17;1.60;99.90
18339;DHT22;9295;44.484;11.240;2023-02-12T05:10:45;1.60;99.90
18339;DHT22;9295;44.484;11.240;2023-02-12T05:13:14;1.50;99.90
18339;DHT22;9295;44.484;11.240;2023-02-12T05:15:42;1.50;99.90
18339;DHT22;9295;44.484;11.240;2023-02-12T05:18:11;1.50;99.90
18339;DHT22;9295;44.484;11.240;2023-02-12T05:20:39;1.50;99.90
18339;DHT22;9295;44.484;11.240;2023-02-12T05:23:07;1.50;99.90
18339;DHT22;9295;44.484;11.240;2023-02-12T05:25:37;1.50;99.90
18339;DHT22;9295;44.484;11.240;2023-02-12T05:28:06;1.40;99.90
18339;DHT22;9295;44.484;11.240;2023-02-12T05:30:34;1.40;99.90
18339;DHT22;9295;44.484;11.240;2023-02-12T05:33:03;1.40;99.90
18339;DHT22;9295;44.484;11.240;2023-02-12T05:35:33;1.30;99.90
18339;DHT22;9295;44.484;11.240;2023-02-12T05:38:02;1.30;99.90
18339;DHT22;9295;44.484;11.240;2023-02-12T05:40:30;1.30;99.90
18339;DHT22;9295;44.484;11.240;2023-02-12T05:43:00;1.30;99.90
18339;DHT22;9295;44.484;11.240;2023-02-12T05:45:29;1.30;99.90
18339;DHT22;9295;44.484;11.240;2023-02-12T05:47:57;1.30;99.90
18339;DHT22;9295;44.484;11.240;2023-02-12T05:50:26;1.20;99.90
18339;DHT22;9295;44.484;11.240;2023-02-12T05:52:59;1.20;99.90
18339;DHT22;9295;44.484;11.240;2023-02-12T05:55:28;1.20;99.90
18339;DHT22;9295;44.484;11.240;2023-02-12T05:57:56;1.10;99.90
18339;DHT22;9295;44.484;11.240;2023-02-12T06:00:26;1.20;99.90
18339;DHT22;9295;44.484;11.240;2023-02-12T06:02:55;1.20;99.90
18339;DHT22;9295;44.484;11.240;2023-02-12T06:05:23;1.20;99.90
18339;DHT22;9295;44.484;11.240;2023-02-12T06:07:52;1.20;99.90
18339;DHT22;9295;44.484;11.240;2023-02-12T06:10:20;1.20;99.90
18339;DHT22;9295;44.484;11.240;2023-02-12T06:12:53;1.10;99.90
18339;DHT22;9295;44.484;11.240;2023-02-12T06:15:21;1.10;99.90
18339;DHT22;9295;44.484;11.240;2023-02-12T06:17:51;1.00;99.90
18339;DHT22;9295;44.484;11.240;2023-02-12T06:20:20;1.00;99.90
18339;DHT22;9295;44.484;11.240;2023-02-12T06:22:48;0.90;99.90
18339;DHT22;9295;44.484;11.240;2023-02-12T06:25:17;0.90;99.90
18339;DHT22;9295;44.484;11.240;2023-02-12T06:27:45;1.00;99.90
18339;DHT22;9295;44.484;11.240;2023-02-12T06:30:14;1.00;99.90
18339;DHT22;9295;44.484;11.240;2023-02-12T06:32:43;1.00;99.90
18339;DHT22;9295;44.484;11.240;2023-02-12T06:35:13;1.10;99.90
18339;DHT22;9295;44.484;11.240;2023-02-12T06:37:41;1.20;99.90
18339;DHT22;9295;44.484;11.240;2023-02-12T06:40:10;1.30;99.90
18339;DHT22;9295;44.484;11.240;2023-02-12T06:42:39;1.40;99.90
18339;DHT22;9295;44.484;11.240;2023-02-12T06:45:08;1.50;99.90
18339;DHT22;9295;44.484;11.240;2023-02-12T06:47:36;1.60;99.90
18339;DHT22;9295;44.484;11.240;2023-02-12T06:50:06;1.70;99.90
18339;DHT22;9295;44.484;11.240;2023-02-12T06:52:36;1.70;99.90
18339;DHT22;9295;44.484;11.240;2023-02-12T06:55:05;1.70;99.90
18339;DHT22;9295;44.484;11.240;2023-02-12T06:57:33;1.80;99.90
18339;DHT22;9295;44.484;11.240;2023-02-12T07:00:02;1.80;99.90
18339;DHT22;9295;44.484;11.240;2023-02-12T07:02:31;1.90;99.90
18339;DHT22;9295;44.484;11.240;2023-02-12T07:05:00;1.90;99.90
18339;DHT22;9295;44.484;11.240;2023-02-12T07:07:28;2.00;99.90
18339;DHT22;9295;44.484;11.240;2023-02-12T07:09:58;2.00;99.90
18339;DHT22;9295;44.484;11.240;2023-02-12T07:12:27;2.10;99.90
18339;DHT22;9295;44.484;11.240;2023-02-12T07:14:55;2.30;99.90
18339;DHT22;9295;44.484;11.240;2023-02-12T07:17:23;2.80;99.90
18339;DHT22;9295;44.484;11.240;2023-02-12T07:19:52;4.60;99.90
18339;DHT22;9295;44.484;11.240;2023-02-12T07:22:21;6.50;99.90
18339;DHT22;9295;44.484;11.240;2023-02-12T07:24:49;8.20;99.90
18339;DHT22;9295;44.484;11.240;2023-02-12T07:27:19;9.90;99.90
18339;DHT22;9295;44.484;11.240;2023-02-12T07:29:48;11.30;99.90
18339;DHT22;9295;44.484;11.240;2023-02-12T07:32:16;12.00;99.90
18339;DHT22;9295;44.484;11.240;2023-02-12T07:34:46;12.80;99.90
18339;DHT22;9295;44.484;11.240;2023-02-12T07:37:14;13.10;99.90
18339;DHT22;9295;44.484;11.240;2023-02-12T07:39:48;13.80;98.00
18339;DHT22;9295;44.484;11.240;2023-02-12T07:42:18;14.70;96.20
18339;DHT22;9295;44.484;11.240;2023-02-12T07:44:49;15.50;93.70
18339;DHT22;9295;44.484;11.240;2023-02-12T07:47:17;16.00;88.60
18339;DHT22;9295;44.484;11.240;2023-02-12T07:49:46;16.50;80.40
18339;DHT22;9295;44.484;11.240;2023-02-12T07:52:14;16.50;81.90
18339;DHT22;9295;44.484;11.240;2023-02-12T07:54:43;16.50;79.60
18339;DHT22;9295;44.484;11.240;2023-02-12T07:57:11;17.10;76.30
18339;DHT22;9295;44.484;11.240;2023-02-12T07:59:41;17.50;70.80
18339;DHT22;9295;44.484;11.240;2023-02-12T08:02:09;17.90;68.40
18339;DHT22;9295;44.484;11.240;2023-02-12T08:04:38;18.30;65.70
18339;DHT22;9295;44.484;11.240;2023-02-12T08:07:07;18.50;63.50
18339;DHT22;9295;44.484;11.240;2023-02-12T08:09:35;18.60;62.30
18339;DHT22;9295;44.484;11.240;2023-02-12T08:12:04;18.70;59.90
18339;DHT22;9295;44.484;11.240;2023-02-12T08:14:32;19.00;59.50
18339;DHT22;9295;44.484;11.240;2023-02-12T08:17:02;19.20;58.90
18339;DHT22;9295;44.484;11.240;2023-02-12T08:19:31;19.20;57.90
18339;DHT22;9295;44.484;11.240;2023-02-12T08:22:00;18.70;57.30
18339;DHT22;9295;44.484;11.240;2023-02-12T08:24:29;18.20;56.40
18339;DHT22;9295;44.484;11.240;2023-02-12T08:26:58;17.40;55.50
18339;DHT22;9295;44.484;11.240;2023-02-12T08:29:28;15.90;54.90
18339;DHT22;9295;44.484;11.240;2023-02-12T08:31:59;14.20;56.90
18339;DHT22;9295;44.484;11.240;2023-02-12T08:34:31;12.80;58.50
18339;DHT22;9295;44.484;11.240;2023-02-12T08:37:00;12.20;60.20
18339;DHT22;9295;44.484;11.240;2023-02-12T08:39:29;11.80;61.10
18339;DHT22;9295;44.484;11.240;2023-02-12T08:41:58;11.40;64.20
18339;DHT22;9295;44.484;11.240;2023-02-12T08:44:27;11.10;64.50
18339;DHT22;9295;44.484;11.240;2023-02-12T08:46:56;11.00;64.50
18339;DHT22;9295;44.484;11.240;2023-02-12T08:49:27;10.80;65.20
18339;DHT22;9295;44.484;11.240;2023-02-12T08:51:58;10.80;68.40
18339;DHT22;9295;44.484;11.240;2023-02-12T08:54:29;10.20;74.70
18339;DHT22;9295;44.484;11.240;2023-02-12T08:57:00;9.60;78.10
18339;DHT22;9295;44.484;11.240;2023-02-12T08:59:29;9.40;78.90
18339;DHT22;9295;44.484;11.240;2023-02-12T09:01:58;9.30;78.90
18339;DHT22;9295;44.484;11.240;2023-02-12T09:04:28;9.40;79.30
18339;DHT22;9295;44.484;11.240;2023-02-12T09:06:58;9.90;72.10
18339;DHT22;9295;44.484;11.240;2023-02-12T09:09:27;10.30;70.60
18339;DHT22;9295;44.484;11.240;2023-02-12T09:11:55;10.60;70.00
18339;DHT22;9295;44.484;11.240;2023-02-12T09:14:24;10.50;73.00
18339;DHT22;9295;44.484;11.240;2023-02-12T09:16:53;10.10;74.60
18339;DHT22;9295;44.484;11.240;2023-02-12T09:19:23;10.10;72.90
18339;DHT22;9295;44.484;11.240;2023-02-12T09:21:53;10.30;70.50
18339;DHT22;9295;44.484;11.240;2023-02-12T09:24:24;10.40;69.80
18339;DHT22;9295;44.484;11.240;2023-02-12T09:26:54;10.70;70.00
18339;DHT22;9295;44.484;11.240;2023-02-12T09:29:22;11.00;68.80
18339;DHT22;9295;44.484;11.240;2023-02-12T09:31:51;11.20;68.30
18339;DHT22;9295;44.484;11.240;2023-02-12T09:34:20;11.30;70.80
18339;DHT22;9295;44.484;11.240;2023-02-12T09:36:48;11.00;70.60
18339;DHT22;9295;44.484;11.240;2023-02-12T09:39:17;11.20;72.30
18339;DHT22;9295;44.484;11.240;2023-02-12T09:42:17;11.60;70.40
18339;DHT22;9295;44.484;11.240;2023-02-12T09:44:54;11.60;71.10
18339;DHT22;9295;44.484;11.240;2023-02-12T09:47:31;11.70;71.30
18339;DHT22;9295;44.484;11.240;2023-02-12T09:50:11;11.30;74.00
18339;DHT22;9295;44.484;11.240;2023-02-12T09:52:44;11.00;76.00
18339;DHT22;9295;44.484;11.240;2023-02-12T09:55:16;11.00;76.40
18339;DHT22;9295;44.484;11.240;2023-02-12T09:57:46;11.10;75.70
18339;DHT22;9295;44.484;11.240;2023-02-12T10:00:18;11.20;76.80
18339;DHT22;9295;44.484;11.240;2023-02-12T10:02:51;11.40;77.60
18339;DHT22;9295;44.484;11.240;2023-02-12T10:05:23;10.90;80.60
18339;DHT22;9295;44.484;11.240;2023-02-12T10:08:12;11.00;79.20
18339;DHT22;9295;44.484;11.240;2023-02-12T10:10:49;11.30;80.30
18339;DHT22;9295;44.484;11.240;2023-02-12T10:13:30;11.40;79.10
18339;DHT22;9295;44.484;11.240;2023-02-12T10:16:06;11.40;81.20
18339;DHT22;9295;44.484;11.240;2023-02-12T10:18:55;11.30;81.40
18339;DHT22;9295;44.484;11.240;2023-02-12T10:21:37;11.10;82.70
18339;DHT22;9295;44.484;11.240;2023-02-12T10:24:42;11.30;81.90
18339;DHT22;9295;44.484;11.240;2023-02-12T10:27:16;11.50;81.60
18339;DHT22;9295;44.484;11.240;2023-02-12T10:29:48;11.60;80.50
18339;DHT22;9295;44.484;11.240;2023-02-12T10:32:23;11.20;82.50
18339;DHT22;9295;44.484;11.240;2023-02-12T10:34:53;11.30;82.40
18339;DHT22;9295;44.484;11.240;2023-02-12T10:37:29;11.40;81.90
18339;DHT22;9295;44.484;11.240;2023-02-12T10:40:03;11.50;82.10
18339;DHT22;9295;44.484;11.240;2023-02-12T10:42:36;11.50;83.10
18339;DHT22;9295;44.484;11.240;2023-02-12T10:45:12;11.00;85.80
18339;DHT22;9295;44.484;11.240;2023-02-12T10:47:41;11.10;84.80
18339;DHT22;9295;44.484;11.240;2023-02-12T10:50:19;11.40;85.50
18339;DHT22;9295;44.484;11.240;2023-02-12T10:52:53;11.60;86.50
18339;DHT22;9295;44.484;11.240;2023-02-12T10:55:25;11.70;86.10
18339;DHT22;9295;44.484;11.240;2023-02-12T10:57:56;11.70;86.50
18339;DHT22;9295;44.484;11.240;2023-02-12T11:00:29;11.40;88.10
18339;DHT22;9295;44.484;11.240;2023-02-12T11:03:02;11.30;88.30
18339;DHT22;9295;44.484;11.240;2023-02-12T11:05:33;11.40;87.40
18339;DHT22;9295;44.484;11.240;2023-02-12T11:08:03;11.60;87.70
18339;DHT22;9295;44.484;11.240;2023-02-12T11:10:36;11.70;87.10
18339;DHT22;9295;44.484;11.240;2023-02-12T11:13:16;11.70;89.00
18339;DHT22;9295;44.484;11.240;2023-02-12T11:15:48;11.40;90.10
18339;DHT22;9295;44.484;11.240;2023-02-12T11:18:21;11.30;90.10
18339;DHT22;9295;44.484;11.240;2023-02-12T11:20:55;11.50;89.60
18339;DHT22;9295;44.484;11.240;2023-02-12T11:23:26;11.70;89.10
18339;DHT22;9295;44.484;11.240;2023-02-12T11:25:58;11.80;89.60
18339;DHT22;9295;44.484;11.240;2023-02-12T11:28:28;11.30;90.90
18339;DHT22;9295;44.484;11.240;2023-02-12T11:31:00;11.20;90.50
18339;DHT22;9295;44.484;11.240;2023-02-12T11:33:31;11.50;90.60
18339;DHT22;9295;44.484;11.240;2023-02-12T11:36:04;11.70;90.30
18339;DHT22;9295;44.484;11.240;2023-02-12T11:38:36;11.90;90.00
18339;DHT22;9295;44.484;11.240;2023-02-12T11:41:20;12.00;89.00
18339;DHT22;9295;44.484;11.240;2023-02-12T11:43:51;11.80;89.20
18339;DHT22;9295;44.484;11.240;2023-02-12T11:46:23;11.70;88.90
18339;DHT22;9295;44.484;11.240;2023-02-12T11:48:54;11.70;88.20
18339;DHT22;9295;44.484;11.240;2023-02-12T11:51:25;11.80;88.00
18339;DHT22;9295;44.484;11.240;2023-02-12T11:53:57;12.00;87.70
18339;DHT22;9295;44.484;11.240;2023-02-12T11:56:40;12.10;88.00
18339;DHT22;9295;44.484;11.240;2023-02-12T11:59:16;12.30;87.60
18339;DHT22;9295;44.484;11.240;2023-02-12T12:01:50;12.30;87.20
18339;DHT22;9295;44.484;11.240;2023-02-12T12:04:22;11.80;85.10
18339;DHT22;9295;44.484;11.240;2023-02-12T12:06:54;11.40;86.10
18339;DHT22;9295;44.484;11.240;2023-02-12T12:09:27;11.60;87.90
18339;DHT22;9295;44.484;11.240;2023-02-12T12:12:03;11.90;87.70
18339;DHT22;9295;44.484;11.240;2023-02-12T12:14:40;12.10;85.60
18339;DHT22;9295;44.484;11.240;2023-02-12T12:17:29;12.20;85.80
18339;DHT22;9295;44.484;11.240;2023-02-12T12:20:22;12.20;85.50
18339;DHT22;9295;44.484;11.240;2023-02-12T12:22:56;11.70;87.20
18339;DHT22;9295;44.484;11.240;2023-02-12T12:25:29;11.80;87.20
18339;DHT22;9295;44.484;11.240;2023-02-12T12:28:04;12.10;84.70
18339;DHT22;9295;44.484;11.240;2023-02-12T12:30:52;12.30;83.90
18339;DHT22;9295;44.484;11.240;2023-02-12T12:33:36;12.50;83.40
18339;DHT22;9295;44.484;11.240;2023-02-12T12:36:33;12.30;81.90
18339;DHT22;9295;44.484;11.240;2023-02-12T12:39:12;12.00;81.70
18339;DHT22;9295;44.484;11.240;2023-02-12T12:45:02;12.20;76.80
18339;DHT22;9295;44.484;11.240;2023-02-12T12:47:43;12.40;76.90
18339;DHT22;9295;44.484;11.240;2023-02-12T12:50:34;12.40;77.30
18339;DHT22;9295;44.484;11.240;2023-02-12T12:53:22;12.10;78.30
18339;DHT22;9295;44.484;11.240;2023-02-12T12:56:15;11.60;80.00
18339;DHT22;9295;44.484;11.240;2023-02-12T12:59:04;11.90;79.20
18339;DHT22;9295;44.484;11.240;2023-02-12T13:02:15;12.20;78.80
18339;DHT22;9295;44.484;11.240;2023-02-12T13:05:17;12.00;77.10
18339;DHT22;9295;44.484;11.240;2023-02-12T13:07:57;12.00;78.20
18339;DHT22;9295;44.484;11.240;2023-02-12T13:10:32;12.30;78.40
18339;DHT22;9295;44.484;11.240;2023-02-12T13:13:12;12.50;76.90
18339;DHT22;9295;44.484;11.240;2023-02-12T13:15:52;12.70;75.50
18339;DHT22;9295;44.484;11.240;2023-02-12T13:18:31;12.60;74.80
18339;DHT22;9295;44.484;11.240;2023-02-12T13:21:07;12.10;76.40
18339;DHT22;9295;44.484;11.240;2023-02-12T13:23:47;12.30;75.70
18339;DHT22;9295;44.484;11.240;2023-02-12T13:26:21;12.40;76.10
18339;DHT22;9295;44.484;11.240;2023-02-12T13:29:00;12.60;75.70
18339;DHT22;9295;44.484;11.240;2023-02-12T13:31:38;12.70;76.40
18339;DHT22;9295;44.484;11.240;2023-02-12T13:34:13;12.70;77.00
18339;DHT22;9295;44.484;11.240;2023-02-12T13:36:43;12.60;77.40
18339;DHT22;9295;44.484;11.240;2023-02-12T13:39:21;12.70;76.80
18339;DHT22;9295;44.484;11.240;2023-02-12T13:42:06;12.90;76.70
18339;DHT22;9295;44.484;11.240;2023-02-12T13:44:42;13.00;76.90
18339;DHT22;9295;44.484;11.240;2023-02-12T13:47:19;13.00;76.90
18339;DHT22;9295;44.484;11.240;2023-02-12T13:49:55;12.70;78.10
18339;DHT22;9295;44.484;11.240;2023-02-12T13:52:29;12.40;79.90
18339;DHT22;9295;44.484;11.240;2023-02-12T13:55:20;12.40;81.20
18339;DHT22;9295;44.484;11.240;2023-02-12T14:00:58;12.70;81.00
18339;DHT22;9295;44.484;11.240;2023-02-12T14:03:28;12.90;81.00
18339;DHT22;9295;44.484;11.240;2023-02-12T14:06:13;13.10;79.80
18339;DHT22;9295;44.484;11.240;2023-02-12T14:08:43;13.00;78.70
18339;DHT22;9295;44.484;11.240;2023-02-12T14:11:16;12.90;79.40
18339;DHT22;9295;44.484;11.240;2023-02-12T14:13:50;12.70;80.10
18339;DHT22;9295;44.484;11.240;2023-02-12T14:16:36;12.80;80.30
18339;DHT22;9295;44.484;11.240;2023-02-12T14:19:38;12.80;80.70
18339;DHT22;9295;44.484;11.240;2023-02-12T14:22:10;12.80;81.60
18339;DHT22;9295;44.484;11.240;2023-02-12T14:24:54;12.90;81.90
18339;DHT22;9295;44.484;11.240;2023-02-12T14:27:28;13.10;81.60
18339;DHT22;9295;44.484;11.240;2023-02-12T14:33:20;13.10;80.60
18339;DHT22;9295;44.484;11.240;2023-02-12T14:36:13;12.70;80.70
18339;DHT22;9295;44.484;11.240;2023-02-12T14:39:01;12.60;81.30
18339;DHT22;9295;44.484;11.240;2023-02-12T14:41:33;12.70;82.30
18339;DHT22;9295;44.484;11.240;2023-02-12T14:50:12;12.50;82.50
18339;DHT22;9295;44.484;11.240;2023-02-12T14:52:47;12.10;84.30
18339;DHT22;9295;44.484;11.240;2023-02-12T14:55:22;12.40;84.60
18339;DHT22;9295;44.484;11.240;2023-02-12T14:57:57;12.60;84.40
18339;DHT22;9295;44.484;11.240;2023-02-12T15:00:30;12.80;84.10
18339;DHT22;9295;44.484;11.240;2023-02-12T15:03:12;12.70;83.90
18339;DHT22;9295;44.484;11.240;2023-02-12T15:05:48;12.50;84.70
18339;DHT22;9295;44.484;11.240;2023-02-12T15:08:27;12.20;86.30
18339;DHT22;9295;44.484;11.240;2023-02-12T15:11:01;12.30;86.60
18339;DHT22;9295;44.484;11.240;2023-02-12T15:13:42;12.30;86.30
18339;DHT22;9295;44.484;11.240;2023-02-12T15:16:19;12.40;86.30
18339;DHT22;9295;44.484;11.240;2023-02-12T15:18:55;12.40;86.60
18339;DHT22;9295;44.484;11.240;2023-02-12T15:21:27;12.10;87.40
18339;DHT22;9295;44.484;11.240;2023-02-12T15:24:02;11.90;87.80
18339;DHT22;9295;44.484;11.240;2023-02-12T15:26:33;11.70;88.60
18339;DHT22;9295;44.484;11.240;2023-02-12T15:29:03;11.90;88.40
18339;DHT22;9295;44.484;11.240;2023-02-12T15:31:32;12.00;88.20
18339;DHT22;9295;44.484;11.240;2023-02-12T15:34:04;12.00;87.70
18339;DHT22;9295;44.484;11.240;2023-02-12T15:36:32;12.00;87.20
18339;DHT22;9295;44.484;11.240;2023-02-12T15:39:05;11.90;86.80
18339;DHT22;9295;44.484;11.240;2023-02-12T15:41:37;11.80;86.90
18339;DHT22;9295;44.484;11.240;2023-02-12T15:44:22;11.60;86.70
18339;DHT22;9295;44.484;11.240;2023-02-12T15:47:08;11.50;87.40
18339;DHT22;9295;44.484;11.240;2023-02-12T15:49:40;11.60;87.30
18339;DHT22;9295;44.484;11.240;2023-02-12T15:52:16;11.70;87.20
18339;DHT22;9295;44.484;11.240;2023-02-12T15:54:46;11.60;87.00
18339;DHT22;9295;44.484;11.240;2023-02-12T15:57:20;11.40;87.40
18339;DHT22;9295;44.484;11.240;2023-02-12T15:59:50;11.00;89.10
18339;DHT22;9295;44.484;11.240;2023-02-12T16:02:21;10.90;89.70
18339;DHT22;9295;44.484;11.240;2023-02-12T16:04:56;11.10;89.30
18339;DHT22;9295;44.484;11.240;2023-02-12T16:07:27;11.20;89.40
18339;DHT22;9295;44.484;11.240;2023-02-12T16:09:56;11.20;89.20
18339;DHT22;9295;44.484;11.240;2023-02-12T16:12:30;11.20;89.50
18339;DHT22;9295;44.484;11.240;2023-02-12T16:15:03;10.90;90.30
18339;DHT22;9295;44.484;11.240;2023-02-12T16:17:33;10.50;91.00
18339;DHT22;9295;44.484;11.240;2023-02-12T16:20:17;10.40;91.50
18339;DHT22;9295;44.484;11.240;2023-02-12T16:22:48;10.50;91.70
18339;DHT22;9295;44.484;11.240;2023-02-12T16:25:19;10.60;91.80
18339;DHT22;9295;44.484;11.240;2023-02-12T16:27:56;10.60;91.70
18339;DHT22;9295;44.484;11.240;2023-02-12T16:30:29;10.50;92.30
18339;DHT22;9295;44.484;11.240;2023-02-12T16:32:59;10.20;92.60
18339;DHT22;9295;44.484;11.240;2023-02-12T16:35:31;10.20;93.00